Time;durP1;ratioP1;P1;durP2;ratioP2;P2;SDS_P1;SDS_P2;PMS_P1;PMS_P2;Temp;Humidity;BMP_temperature;BMP_pressure;BME280_temperature;BME280_humidity;BME280_pressure;Samples;Min_cycle;Max_cycle;Signal;HPM_P1;HPM_P2
2021/12/03 00:01:58;;;;;;;14.77;7.97;;;3.70;99.90;;;;;;5062356;28;20287;-88
2021/12/03 00:04:26;;;;;;;13.50;8.13;;;3.80;99.90;;;;;;5060780;28;20161;-86
2021/12/03 00:06:53;;;;;;;14.20;8.57;;;3.80;99.90;;;;;;5061333;28;20533;-85
2021/12/03 00:09:19;;;;;;;15.87;9.20;;;3.80;99.90;;;;;;5063970;28;20208;-91
2021/12/03 00:11:45;;;;;;;18.93;8.53;;;3.70;99.90;;;;;;5075073;28;20177;-87
2021/12/03 00:14:11;;;;;;;14.37;8.43;;;4.00;99.90;;;;;;5081029;28;20154;-83
2021/12/03 00:16:37;;;;;;;15.23;8.83;;;3.90;99.90;;;;;;5080398;28;20215;-80
2021/12/03 00:19:03;;;;;;;13.67;8.63;;;3.80;99.90;;;;;;5078848;28;20165;-85
2021/12/03 00:21:37;;;;;;;19.30;9.53;;;3.80;99.90;;;;;;5063852;28;20359;-87
2021/12/03 00:24:03;;;;;;;14.90;8.33;;;3.80;99.90;;;;;;5060854;28;20168;-89
2021/12/03 00:26:30;;;;;;;17.17;9.10;;;3.70;99.90;;;;;;5060569;28;20180;-88
2021/12/03 00:28:55;;;;;;;17.30;8.60;;;3.60;99.90;;;;;;5057996;28;20173;-85
2021/12/03 00:31:21;;;;;;;16.20;9.23;;;3.70;99.90;;;;;;5047298;28;20192;-87
2021/12/03 00:33:48;;;;;;;16.73;8.30;;;3.50;99.90;;;;;;5046740;28;20187;-85
2021/12/03 00:36:14;;;;;;;16.03;9.20;;;3.50;99.90;;;;;;5042638;28;20169;-85
2021/12/03 00:38:47;;;;;;;15.10;8.83;;;3.50;99.90;;;;;;5039159;28;20174;-88
2021/12/03 00:41:18;;;;;;;13.07;8.50;;;3.50;99.90;;;;;;5077777;28;20217;-87
2021/12/03 00:43:46;;;;;;;15.13;9.67;;;3.60;99.90;;;;;;5077740;28;20220;-77
2021/12/03 00:46:15;;;;;;;17.03;8.77;;;3.50;99.90;;;;;;5077750;28;20231;-80
2021/12/03 00:48:43;;;;;;;15.17;8.77;;;3.40;99.90;;;;;;5077211;28;20217;-84
2021/12/03 00:51:13;;;;;;;17.77;8.80;;;3.50;99.90;;;;;;5074965;28;20173;-84
2021/12/03 00:54:02;;;;;;;13.63;8.10;;;3.50;99.90;;;;;;5067773;28;20169;-86
2021/12/03 00:56:41;;;;;;;12.30;8.30;;;3.60;99.90;;;;;;5040644;28;20173;-88
2021/12/03 00:59:07;;;;;;;14.80;9.40;;;3.60;99.90;;;;;;5040340;28;20208;-89
2021/12/03 01:01:33;;;;;;;21.27;10.30;;;3.50;99.90;;;;;;5039870;28;20214;-89
2021/12/03 01:04:00;;;;;;;21.13;9.63;;;3.40;99.90;;;;;;5040076;28;20172;-87
2021/12/03 01:06:26;;;;;;;19.27;10.90;;;3.60;99.90;;;;;;5037288;28;20174;-88
2021/12/03 01:08:53;;;;;;;19.90;10.47;;;3.60;99.90;;;;;;5036938;28;20196;-87
2021/12/03 01:11:18;;;;;;;21.73;10.47;;;3.50;99.90;;;;;;5051530;28;20165;-88
2021/12/03 01:13:47;;;;;;;24.77;10.73;;;3.40;99.90;;;;;;5056028;28;20187;-87
2021/12/03 01:16:14;;;;;;;16.63;9.67;;;3.40;99.90;;;;;;5056755;28;20169;-88
2021/12/03 01:18:46;;;;;;;18.50;10.37;;;3.50;99.90;;;;;;5056291;28;20200;-89
2021/12/03 01:21:14;;;;;;;18.07;10.53;;;3.40;99.90;;;;;;5054036;28;20197;-88
2021/12/03 01:23:40;;;;;;;18.23;9.67;;;3.40;99.90;;;;;;5056649;28;20648;-82
2021/12/03 01:26:05;;;;;;;16.00;10.03;;;3.30;99.90;;;;;;5056584;28;20265;-86
2021/12/03 01:28:31;;;;;;;17.00;9.87;;;3.30;99.90;;;;;;5056402;28;20188;-89
2021/12/03 01:30:58;;;;;;;18.03;10.07;;;3.30;99.90;;;;;;5056151;28;20176;-85
2021/12/03 01:33:24;;;;;;;22.27;10.27;;;3.30;99.90;;;;;;5056089;28;20352;-84
2021/12/03 01:35:50;;;;;;;23.07;10.60;;;3.40;99.90;;;;;;5054978;28;20637;-84
2021/12/03 01:38:16;;;;;;;21.63;10.37;;;3.40;99.90;;;;;;5056282;28;20180;-86
2021/12/03 01:40:43;;;;;;;20.00;11.63;;;3.40;99.90;;;;;;5056380;28;20200;-88
2021/12/03 01:43:13;;;;;;;18.30;11.47;;;3.40;99.90;;;;;;5056371;28;20173;-88
2021/12/03 01:45:40;;;;;;;23.00;11.73;;;3.30;99.90;;;;;;5055767;28;20177;-88
2021/12/03 01:48:06;;;;;;;22.03;10.90;;;3.30;99.90;;;;;;5056286;28;20169;-86
2021/12/03 01:50:38;;;;;;;17.63;9.87;;;3.40;99.90;;;;;;5058016;28;20183;-90
2021/12/03 01:53:04;;;;;;;21.37;10.47;;;3.30;99.90;;;;;;5044556;28;20228;-86
2021/12/03 01:55:30;;;;;;;24.10;11.37;;;3.30;99.90;;;;;;5052465;28;20170;-87
2021/12/03 01:57:56;;;;;;;21.23;10.87;;;3.30;99.90;;;;;;5054587;28;20177;-89
2021/12/03 02:00:24;;;;;;;25.27;10.97;;;3.30;99.90;;;;;;5055795;28;20208;-88
2021/12/03 02:02:50;;;;;;;19.93;11.00;;;3.30;99.90;;;;;;5061406;28;20215;-86
2021/12/03 02:05:18;;;;;;;24.73;11.70;;;3.20;99.90;;;;;;5068589;28;20212;-86
2021/12/03 02:07:44;;;;;;;20.97;9.57;;;3.30;99.90;;;;;;5074665;28;20165;-80
2021/12/03 02:10:11;;;;;;;19.83;11.23;;;3.20;99.90;;;;;;5077748;28;20183;-80
2021/12/03 02:12:37;;;;;;;22.33;10.50;;;3.30;99.90;;;;;;5072419;28;20225;-79
2021/12/03 02:15:04;;;;;;;23.67;9.63;;;3.20;99.90;;;;;;5071775;28;20238;-81
2021/12/03 02:17:33;;;;;;;16.57;9.07;;;3.30;99.90;;;;;;5055611;28;20181;-77
2021/12/03 02:20:06;;;;;;;21.57;10.40;;;3.30;99.90;;;;;;5053234;28;20206;-83
2021/12/03 02:22:31;;;;;;;19.43;11.13;;;3.20;99.90;;;;;;5043890;28;20174;-87
2021/12/03 02:24:57;;;;;;;19.13;10.17;;;3.30;99.90;;;;;;5042553;28;20185;-81
2021/12/03 02:27:23;;;;;;;22.53;9.90;;;3.20;99.90;;;;;;5044239;28;20190;-80
2021/12/03 02:29:49;;;;;;;20.80;10.37;;;3.20;99.90;;;;;;5052896;28;20539;-78
2021/12/03 02:35:40;;;;;;;25.87;10.87;;;3.20;99.90;;;;;;5052296;28;20172;-77
2021/12/03 02:38:07;;;;;;;16.30;8.53;;;3.30;99.90;;;;;;5045400;28;20166;-86
2021/12/03 02:40:33;;;;;;;24.07;8.40;;;3.20;99.90;;;;;;5069450;28;20200;-78
2021/12/03 02:42:59;;;;;;;20.77;8.73;;;3.10;99.90;;;;;;5069211;28;20296;-82
2021/12/03 02:45:31;;;;;;;20.57;8.37;;;3.20;99.90;;;;;;5065397;28;20173;-79
2021/12/03 02:48:02;;;;;;;16.83;8.03;;;3.20;99.90;;;;;;5064981;28;20223;-83
2021/12/03 02:50:28;;;;;;;28.80;10.20;;;3.20;99.90;;;;;;5063110;28;20172;-85
2021/12/03 02:52:54;;;;;;;29.20;10.57;;;3.20;99.90;;;;;;5072488;28;20180;-81
2021/12/03 02:55:22;;;;;;;20.70;8.93;;;3.10;99.90;;;;;;5077530;28;20180;-77
2021/12/03 02:57:48;;;;;;;24.27;8.77;;;3.10;99.90;;;;;;5075399;28;20168;-78
2021/12/03 03:00:18;;;;;;;25.37;8.87;;;3.10;99.90;;;;;;5076453;28;20197;-78
2021/12/03 03:03:13;;;;;;;26.20;8.80;;;3.10;99.90;;;;;;5068144;28;20184;-84
2021/12/03 03:05:40;;;;;;;25.70;8.40;;;3.00;99.90;;;;;;5063244;28;20181;-82
2021/12/03 03:08:06;;;;;;;18.80;7.90;;;3.00;99.90;;;;;;5061799;28;20240;-83
2021/12/03 03:10:39;;;;;;;21.33;8.63;;;2.90;99.90;;;;;;5043969;28;20166;-87
2021/12/03 03:13:08;;;;;;;28.67;9.63;;;3.10;99.90;;;;;;5050488;28;20220;-86
2021/12/03 03:15:35;;;;;;;18.33;7.67;;;3.10;99.90;;;;;;5058259;28;20170;-81
2021/12/03 03:18:16;;;;;;;21.00;7.97;;;3.00;99.90;;;;;;5057721;28;20237;-79
2021/12/03 03:20:44;;;;;;;28.23;10.03;;;3.00;99.90;;;;;;5057604;28;20223;-80
2021/12/03 03:23:58;;;;;;;25.57;8.37;;;3.00;99.90;;;;;;5055039;28;20654;-86
2021/12/03 03:26:24;;;;;;;24.20;7.90;;;2.90;99.90;;;;;;5046383;28;20190;-79
2021/12/03 03:28:55;;;;;;;19.27;7.90;;;3.00;99.90;;;;;;5046398;28;20170;-84
2021/12/03 03:31:24;;;;;;;21.57;8.30;;;3.00;99.90;;;;;;5042243;28;20158;-87
2021/12/03 03:33:50;;;;;;;23.73;8.07;;;3.10;99.90;;;;;;5035471;28;20181;-87
2021/12/03 03:36:21;;;;;;;25.57;8.03;;;3.00;99.90;;;;;;5035153;28;20180;-88
2021/12/03 03:39:08;;;;;;;28.50;8.33;;;3.10;99.90;;;;;;5035359;28;20173;-83
2021/12/03 03:41:34;;;;;;;20.80;6.60;;;3.10;99.90;;;;;;5036964;28;20197;-88
2021/12/03 03:44:00;;;;;;;25.90;9.07;;;3.10;99.90;;;;;;5039576;28;20180;-87
2021/12/03 03:46:26;;;;;;;22.10;8.23;;;3.10;99.90;;;;;;5038785;28;20216;-84
2021/12/03 03:48:52;;;;;;;21.53;7.00;;;3.00;99.90;;;;;;5038716;28;20237;-88
2021/12/03 03:51:18;;;;;;;22.87;7.33;;;2.90;99.90;;;;;;5039653;28;20208;-88
2021/12/03 03:53:44;;;;;;;17.57;6.37;;;2.90;99.90;;;;;;5059296;28;20633;-88
2021/12/03 03:56:10;;;;;;;15.67;6.37;;;3.00;99.90;;;;;;5055507;28;20652;-87
2021/12/03 03:58:37;;;;;;;22.37;6.57;;;3.00;99.90;;;;;;5038657;28;20182;-86
2021/12/03 04:01:04;;;;;;;19.07;6.93;;;2.90;99.90;;;;;;5039704;28;20208;-89
2021/12/03 04:03:30;;;;;;;17.87;6.20;;;3.00;99.90;;;;;;5051003;28;20178;-81
2021/12/03 04:05:58;;;;;;;23.03;6.27;;;2.90;99.90;;;;;;5059909;28;20193;-79
2021/12/03 04:08:24;;;;;;;16.10;6.17;;;2.90;99.90;;;;;;5060542;28;20205;-87
2021/12/03 04:10:50;;;;;;;19.07;6.27;;;2.90;99.90;;;;;;5058556;28;20185;-86
2021/12/03 04:13:18;;;;;;;19.67;6.90;;;2.90;99.90;;;;;;5054266;28;20173;-83
2021/12/03 04:15:44;;;;;;;16.70;6.67;;;2.90;99.90;;;;;;5043170;28;20227;-81
2021/12/03 04:18:12;;;;;;;22.60;6.60;;;2.90;99.90;;;;;;5038583;28;20185;-81
2021/12/03 04:20:38;;;;;;;19.07;6.60;;;2.80;99.90;;;;;;5036984;28;20206;-86
2021/12/03 04:23:04;;;;;;;16.07;6.37;;;2.80;99.90;;;;;;5053209;28;20648;-86
2021/12/03 04:25:29;;;;;;;20.30;7.33;;;2.90;99.90;;;;;;5037687;28;20272;-88
2021/12/03 04:27:55;;;;;;;15.67;5.63;;;2.90;99.90;;;;;;5038263;28;20571;-82
2021/12/03 04:30:25;;;;;;;19.37;7.37;;;2.90;99.90;;;;;;5040145;28;20181;-85
2021/12/03 04:32:55;;;;;;;24.23;6.73;;;2.90;99.90;;;;;;5040890;28;20185;-88
2021/12/03 04:35:22;;;;;;;19.20;6.17;;;2.80;99.90;;;;;;5038550;28;20177;-86
2021/12/03 04:37:48;;;;;;;16.00;5.97;;;2.80;99.90;;;;;;5040122;28;20178;-84
2021/12/03 04:40:15;;;;;;;16.60;6.63;;;2.80;99.90;;;;;;5038786;28;20673;-87
2021/12/03 04:42:42;;;;;;;17.20;6.63;;;2.80;99.90;;;;;;5039091;28;20197;-85
2021/12/03 04:45:12;;;;;;;20.53;6.00;;;2.90;99.90;;;;;;5038283;28;20173;-87
2021/12/03 04:47:38;;;;;;;16.10;6.20;;;2.90;99.90;;;;;;5041161;28;20170;-85
2021/12/03 04:50:06;;;;;;;20.10;7.17;;;2.90;99.90;;;;;;5056954;28;20265;-83
2021/12/03 04:52:32;;;;;;;16.20;5.83;;;2.80;99.90;;;;;;5061010;28;20203;-81
2021/12/03 04:54:58;;;;;;;16.97;7.37;;;2.80;99.90;;;;;;5070317;28;20177;-83
2021/12/03 04:57:23;;;;;;;11.37;5.60;;;2.70;99.90;;;;;;5056304;28;20177;-81
2021/12/03 04:59:49;;;;;;;18.03;6.20;;;2.70;99.90;;;;;;5041281;28;20208;-87
2021/12/03 05:02:16;;;;;;;16.40;5.40;;;2.70;99.90;;;;;;5039042;28;20256;-81
2021/12/03 05:04:49;;;;;;;12.10;5.20;;;2.70;99.90;;;;;;5038840;28;20213;-86
2021/12/03 05:09:41;;;;;;;17.27;5.93;;;2.80;99.90;;;;;;5072190;28;20242;-86
2021/12/03 05:12:08;;;;;;;19.47;5.80;;;2.80;99.90;;;;;;5051498;28;20170;-83
2021/12/03 05:14:36;;;;;;;15.23;6.30;;;2.80;99.90;;;;;;5045294;28;20223;-87
2021/12/03 05:17:04;;;;;;;15.73;6.27;;;2.80;99.90;;;;;;5037375;28;20284;-88
2021/12/03 05:19:30;;;;;;;18.50;6.20;;;2.70;99.90;;;;;;5037284;28;20174;-86
2021/12/03 05:21:55;;;;;;;16.60;5.40;;;2.70;99.90;;;;;;5038752;28;20188;-86
2021/12/03 05:24:21;;;;;;;15.20;5.63;;;2.90;99.90;;;;;;5039759;28;20197;-87
2021/12/03 05:26:48;;;;;;;15.13;5.30;;;2.90;99.90;;;;;;5038286;28;20241;-86
2021/12/03 05:29:14;;;;;;;15.23;5.73;;;2.80;99.90;;;;;;5037850;28;20220;-86
2021/12/03 05:31:40;;;;;;;11.63;5.17;;;2.80;99.90;;;;;;5035856;28;20173;-85
2021/12/03 05:34:10;;;;;;;12.07;5.90;;;2.80;99.90;;;;;;5036706;28;20177;-87
2021/12/03 05:36:36;;;;;;;16.90;7.00;;;2.70;99.90;;;;;;5038905;28;20169;-87
2021/12/03 05:39:04;;;;;;;17.27;6.27;;;2.80;99.90;;;;;;5037191;28;20201;-86
2021/12/03 05:41:30;;;;;;;14.23;5.83;;;2.70;99.90;;;;;;5036717;28;20213;-87
2021/12/03 05:43:56;;;;;;;15.33;6.03;;;2.70;99.90;;;;;;5049894;28;20172;-84
2021/12/03 05:46:22;;;;;;;12.20;5.00;;;2.70;99.90;;;;;;5058638;28;20162;-84
2021/12/03 05:48:48;;;;;;;11.50;5.40;;;2.80;99.90;;;;;;5058430;28;20160;-82
2021/12/03 05:51:17;;;;;;;13.67;6.80;;;2.80;99.90;;;;;;5048030;28;20617;-87
2021/12/03 05:54:04;;;;;;;17.23;6.57;;;2.80;99.90;;;;;;5037003;28;20170;-87
2021/12/03 05:56:30;;;;;;;17.03;5.90;;;3.00;99.90;;;;;;5037227;28;20162;-79
2021/12/03 05:58:56;;;;;;;17.83;6.10;;;3.00;99.90;;;;;;5036265;28;20173;-87
2021/12/03 06:01:22;;;;;;;16.30;5.93;;;2.90;99.90;;;;;;5038924;28;20241;-89
2021/12/03 06:03:48;;;;;;;14.13;5.97;;;3.00;99.90;;;;;;5047235;28;20201;-87
2021/12/03 06:06:15;;;;;;;18.90;5.97;;;3.00;99.90;;;;;;5057729;28;20160;-84
2021/12/03 06:08:42;;;;;;;15.40;5.53;;;3.10;99.90;;;;;;5058264;28;20146;-81
2021/12/03 06:11:08;;;;;;;11.17;4.83;;;3.20;99.90;;;;;;5066116;28;20192;-81
2021/12/03 06:13:38;;;;;;;18.73;5.30;;;3.30;99.90;;;;;;5034764;28;20261;-87
2021/12/03 06:16:08;;;;;;;14.73;4.90;;;3.30;99.90;;;;;;5036139;28;20154;-88
2021/12/03 06:18:34;;;;;;;19.23;5.73;;;3.30;99.90;;;;;;5035606;28;20166;-89
2021/12/03 06:21:03;;;;;;;15.13;5.47;;;3.30;99.90;;;;;;5038004;28;20259;-88
2021/12/03 06:23:30;;;;;;;16.60;5.57;;;3.20;99.90;;;;;;5043271;28;20165;-78
2021/12/03 06:25:58;;;;;;;12.00;4.90;;;3.20;99.90;;;;;;5040216;28;20192;-81
2021/12/03 06:28:25;;;;;;;15.30;5.73;;;3.20;99.90;;;;;;5040314;28;20230;-80
2021/12/03 06:30:51;;;;;;;17.30;4.87;;;3.30;99.90;;;;;;5043754;28;20169;-85
2021/12/03 06:33:19;;;;;;;15.37;5.47;;;3.30;99.90;;;;;;5037667;28;20200;-84
2021/12/03 06:35:45;;;;;;;11.10;5.03;;;3.30;99.90;;;;;;5040313;28;20622;-88
2021/12/03 06:38:12;;;;;;;13.80;5.57;;;3.30;99.90;;;;;;5038424;28;20170;-82
2021/12/03 06:40:41;;;;;;;15.10;4.97;;;3.30;99.90;;;;;;5036872;28;20653;-81
2021/12/03 06:43:07;;;;;;;12.00;4.60;;;3.40;99.90;;;;;;5035733;28;20224;-86
2021/12/03 06:45:33;;;;;;;14.57;5.27;;;3.40;99.90;;;;;;5043776;28;20173;-78
2021/12/03 06:48:00;;;;;;;18.90;5.17;;;3.30;99.90;;;;;;5041332;28;20173;-81
2021/12/03 06:50:29;;;;;;;17.77;6.13;;;3.30;99.90;;;;;;5038044;28;20316;-89
2021/12/03 06:53:08;;;;;;;15.67;5.47;;;3.30;99.90;;;;;;5050013;28;20566;-86
2021/12/03 06:55:58;;;;;;;16.90;4.80;;;3.40;99.90;;;;;;5056303;28;20232;-88
2021/12/03 06:58:24;;;;;;;13.53;5.53;;;3.40;99.90;;;;;;5035711;28;20528;-88
2021/12/03 07:00:53;;;;;;;18.97;5.33;;;3.60;99.90;;;;;;5035689;28;20224;-84
2021/12/03 07:03:20;;;;;;;20.50;5.53;;;3.60;99.90;;;;;;5035093;28;20563;-86
2021/12/03 07:05:46;;;;;;;14.90;4.90;;;3.50;99.90;;;;;;5034970;28;20174;-85
2021/12/03 07:08:12;;;;;;;15.33;5.70;;;3.60;99.90;;;;;;5035325;28;20591;-85
2021/12/03 07:10:38;;;;;;;16.43;4.93;;;3.70;99.90;;;;;;5034255;28;20256;-85
2021/12/03 07:13:04;;;;;;;17.80;5.50;;;3.60;99.90;;;;;;5034138;28;20271;-79
2021/12/03 07:15:30;;;;;;;13.10;5.07;;;3.60;99.90;;;;;;5036168;28;20173;-84
2021/12/03 07:17:56;;;;;;;15.63;5.10;;;3.60;99.90;;;;;;5038946;28;20186;-85
2021/12/03 07:20:25;;;;;;;15.07;4.80;;;3.70;99.90;;;;;;5060178;28;20197;-82
2021/12/03 07:22:51;;;;;;;14.90;4.30;;;3.60;99.90;;;;;;5073394;28;20161;-79
2021/12/03 07:25:18;;;;;;;14.47;4.53;;;3.60;99.90;;;;;;5071298;28;20177;-78
2021/12/03 07:27:44;;;;;;;12.17;4.40;;;3.60;99.90;;;;;;5057960;28;20170;-85
2021/12/03 07:30:13;;;;;;;10.73;4.20;;;3.50;99.90;;;;;;5073878;28;20260;-83
2021/12/03 07:32:45;;;;;;;16.00;5.80;;;3.50;99.90;;;;;;5048682;28;20174;-78
2021/12/03 07:35:14;;;;;;;15.47;5.77;;;3.60;99.90;;;;;;5070403;28;20185;-86
2021/12/03 07:37:43;;;;;;;15.50;5.60;;;3.60;99.90;;;;;;5059826;28;20677;-79
2021/12/03 07:40:24;;;;;;;10.83;4.93;;;3.60;99.90;;;;;;5058727;28;20204;-83
2021/12/03 07:42:52;;;;;;;12.87;5.70;;;3.60;99.90;;;;;;5074379;28;20200;-83
2021/12/03 07:45:18;;;;;;;13.70;5.77;;;3.70;99.90;;;;;;5058955;28;20260;-78
2021/12/03 07:47:43;;;;;;;12.10;4.90;;;3.70;99.90;;;;;;5058469;28;20185;-81
2021/12/03 07:50:10;;;;;;;17.40;5.57;;;3.70;99.90;;;;;;5059064;28;20235;-91
2021/12/03 07:52:37;;;;;;;16.83;5.67;;;3.80;99.90;;;;;;5062602;28;20196;-79
2021/12/03 07:55:05;;;;;;;14.10;6.10;;;3.80;99.90;;;;;;5058921;28;20629;-84
2021/12/03 07:57:32;;;;;;;16.83;5.47;;;3.80;99.90;;;;;;5058642;28;20189;-84
2021/12/03 07:59:59;;;;;;;18.63;5.87;;;3.80;99.90;;;;;;5055747;28;20224;-81
2021/12/03 08:02:26;;;;;;;12.63;5.30;;;3.80;99.90;;;;;;5061379;28;20184;-87
2021/12/03 08:05:01;;;;;;;16.00;6.20;;;3.80;99.90;;;;;;5071637;28;20187;-79
2021/12/03 08:07:27;;;;;;;15.83;5.97;;;4.10;99.90;;;;;;5089930;28;20175;-77
2021/12/03 08:09:53;;;;;;;11.90;6.13;;;3.90;99.90;;;;;;5070947;28;20153;-83
2021/12/03 08:12:19;;;;;;;16.27;5.97;;;3.90;99.90;;;;;;5077609;28;20192;-82
2021/12/03 08:14:45;;;;;;;15.13;7.23;;;4.00;99.90;;;;;;5073961;28;20173;-85
2021/12/03 08:17:10;;;;;;;13.57;6.50;;;4.00;99.90;;;;;;5060247;28;20197;-83
2021/12/03 08:19:36;;;;;;;11.67;6.63;;;4.00;99.90;;;;;;5050174;28;20166;-83
2021/12/03 08:22:03;;;;;;;15.67;6.23;;;4.00;99.90;;;;;;5067043;28;20203;-78
2021/12/03 08:24:29;;;;;;;12.30;6.53;;;4.10;99.90;;;;;;5059532;28;20307;-86
2021/12/03 08:26:56;;;;;;;16.47;6.63;;;4.00;99.90;;;;;;5052976;28;20669;-85
2021/12/03 08:29:27;;;;;;;13.13;6.87;;;4.10;99.90;;;;;;5049736;28;20165;-86
2021/12/03 08:31:53;;;;;;;16.93;6.63;;;4.00;99.90;;;;;;5064798;28;20165;-84
2021/12/03 08:34:19;;;;;;;13.43;6.27;;;4.10;99.90;;;;;;5066787;28;20204;-86
2021/12/03 08:36:46;;;;;;;13.30;6.93;;;4.20;99.90;;;;;;5042496;28;20232;-87
2021/12/03 08:39:14;;;;;;;11.73;6.70;;;4.20;99.90;;;;;;5060832;28;20164;-86
2021/12/03 08:41:40;;;;;;;20.17;7.30;;;4.20;99.90;;;;;;5065765;28;20254;-87
2021/12/03 08:44:05;;;;;;;15.20;6.40;;;4.30;99.90;;;;;;5060049;28;20169;-82
2021/12/03 08:46:34;;;;;;;11.03;6.23;;;4.30;99.90;;;;;;5050851;28;20263;-86
2021/12/03 08:49:16;;;;;;;15.70;6.40;;;4.30;99.90;;;;;;5051836;28;20169;-85
2021/12/03 08:51:54;;;;;;;17.63;6.70;;;4.50;99.90;;;;;;5055349;28;20165;-83
2021/12/03 08:57:04;;;;;;;13.77;6.63;;;4.40;99.90;;;;;;5074590;28;20242;-78
2021/12/03 08:59:30;;;;;;;18.50;6.67;;;4.40;99.90;;;;;;5076710;28;20169;-86
2021/12/03 09:01:55;;;;;;;12.07;6.00;;;4.30;99.90;;;;;;5074590;28;20165;-85
2021/12/03 09:04:23;;;;;;;14.53;5.73;;;4.30;99.90;;;;;;5076959;28;20165;-85
2021/12/03 09:06:49;;;;;;;12.70;5.93;;;4.40;99.90;;;;;;5066187;28;20162;-82
2021/12/03 09:09:15;;;;;;;16.30;6.73;;;4.40;99.90;;;;;;5096367;28;20175;-83
2021/12/03 09:11:44;;;;;;;13.23;6.47;;;4.40;99.90;;;;;;5093769;28;20179;-79
2021/12/03 09:17:04;;;;;;;13.53;6.40;;;4.70;99.90;;;;;;5063465;28;20201;-77
2021/12/03 09:19:37;;;;;;;12.63;6.33;;;4.50;99.90;;;;;;5058876;28;20158;-75
2021/12/03 09:22:11;;;;;;;11.13;6.17;;;4.60;99.90;;;;;;5058477;28;20185;-78
2021/12/03 09:24:43;;;;;;;12.63;5.77;;;4.60;99.90;;;;;;5059124;28;20154;-84
2021/12/03 09:27:12;;;;;;;15.73;6.27;;;4.50;99.90;;;;;;5053230;28;20248;-78
2021/12/03 09:29:41;;;;;;;14.70;5.47;;;4.60;99.90;;;;;;5057498;28;20196;-79
2021/12/03 09:32:22;;;;;;;16.33;6.37;;;4.60;99.90;;;;;;5059518;28;20234;-78
2021/12/03 09:34:49;;;;;;;9.93;5.47;;;4.60;99.90;;;;;;5056926;28;20264;-77
2021/12/03 09:37:18;;;;;;;14.87;6.50;;;4.70;99.90;;;;;;5054397;28;20169;-78
2021/12/03 09:40:26;;;;;;;15.97;6.13;;;4.70;99.90;;;;;;5045176;28;20486;-79
2021/12/03 09:43:33;;;;;;;15.97;6.17;;;4.70;99.90;;;;;;5039107;28;20173;-84
2021/12/03 09:46:26;;;;;;;14.17;7.10;;;4.70;99.90;;;;;;5040034;28;20165;-82
2021/12/03 09:51:29;;;;;;;14.20;6.33;;;4.80;99.90;;;;;;5039215;28;20184;-84
2021/12/03 09:56:43;;;;;;;15.57;7.83;;;4.80;99.90;;;;;;5037125;28;20201;-84
2021/12/03 10:02:12;;;;;;;11.87;6.00;;;4.90;99.90;;;;;;5038339;28;20328;-87
2021/12/03 10:15:12;;;;;;;13.73;6.03;;;5.00;99.40;;;;;;5048568;28;20172;-83
2021/12/03 10:21:02;;;;;;;7.40;5.03;;;5.10;98.40;;;;;;5046881;28;20217;-78
2021/12/03 10:29:10;;;;;;;9.77;4.93;;;5.20;97.10;;;;;;5071343;28;20180;-82
2021/12/03 10:37:35;;;;;;;11.10;5.90;;;5.20;96.90;;;;;;5059130;28;20629;-78
2021/12/03 10:41:07;;;;;;;10.77;5.23;;;5.30;97.30;;;;;;5063590;28;20196;-79
2021/12/03 10:46:26;;;;;;;10.67;5.67;;;5.20;97.10;;;;;;5059260;28;20177;-80
2021/12/03 11:00:42;;;;;;;11.70;5.20;;;5.30;96.30;;;;;;5076070;28;20199;-81
2021/12/03 11:16:46;;;;;;;17.47;7.83;;;5.40;94.80;;;;;;5058499;28;20235;-86
2021/12/03 11:35:52;;;;;;;9.03;4.73;;;5.40;95.00;;;;;;5058009;28;20187;-84
2021/12/03 12:36:56;;;;;;;6.93;3.50;;;5.70;93.50;;;;;;5078192;28;20175;-82
2021/12/03 13:15:24;;;;;;;6.33;3.03;;;5.30;99.90;;;;;;5074629;28;20219;-85
2021/12/03 13:18:04;;;;;;;4.80;2.80;;;5.20;99.90;;;;;;5074016;28;20184;-80
2021/12/03 13:57:15;;;;;;;4.23;3.10;;;5.30;99.90;;;;;;5072307;28;20184;-80
2021/12/03 14:07:40;;;;;;;6.57;3.43;;;5.20;99.90;;;;;;5069945;28;20192;-83
2021/12/03 14:26:04;;;;;;;3.90;2.73;;;5.10;99.90;;;;;;5067360;28;20165;-86
2021/12/03 14:48:08;;;;;;;5.13;3.13;;;4.90;99.90;;;;;;5072998;28;20152;-83
2021/12/03 14:56:26;;;;;;;4.13;3.03;;;5.00;99.90;;;;;;5093562;28;20156;-83
2021/12/03 14:59:29;;;;;;;4.27;2.70;;;5.00;99.90;;;;;;5089164;28;20175;-89
2021/12/03 15:07:52;;;;;;;4.37;2.67;;;4.90;99.90;;;;;;5071944;28;20173;-84
2021/12/03 15:10:37;;;;;;;4.33;2.93;;;4.90;99.90;;;;;;5075144;28;20180;-79
2021/12/03 15:23:16;;;;;;;3.70;2.40;;;4.90;99.90;;;;;;5052351;28;20645;-85
2021/12/03 15:32:43;;;;;;;3.20;2.70;;;5.00;99.90;;;;;;5051166;28;20222;-88
2021/12/03 15:35:28;;;;;;;2.93;2.40;;;4.90;99.90;;;;;;5034842;28;20200;-82
2021/12/03 16:08:17;;;;;;;4.60;2.40;;;4.90;99.90;;;;;;5051789;28;20181;-86
2021/12/03 16:52:58;;;;;;;4.03;3.03;;;4.90;99.90;;;;;;5048352;28;20165;-90
2021/12/03 16:58:49;;;;;;;5.20;3.00;;;4.90;99.90;;;;;;5047043;28;20193;-82
2021/12/03 17:02:05;;;;;;;3.93;3.20;;;4.90;99.90;;;;;;5048910;28;20686;-81
2021/12/03 17:22:27;;;;;;;4.57;2.40;;;5.00;99.90;;;;;;5052878;28;20212;-87
2021/12/03 17:24:55;;;;;;;2.70;2.20;;;5.00;99.90;;;;;;5064673;28;20193;-84
2021/12/03 17:47:29;;;;;;;3.70;2.47;;;5.10;99.90;;;;;;5078607;28;20163;-82
2021/12/03 17:50:10;;;;;;;3.37;2.30;;;5.20;99.90;;;;;;5077316;28;20176;-83
2021/12/03 17:56:09;;;;;;;3.20;2.33;;;5.10;99.90;;;;;;5073063;28;20168;-84
2021/12/03 18:44:57;;;;;;;4.17;2.80;;;5.10;99.90;;;;;;5070202;28;20204;-85
2021/12/03 18:52:57;;;;;;;3.30;2.80;;;5.00;99.90;;;;;;5061705;28;20181;-85
2021/12/03 18:55:37;;;;;;;4.60;3.53;;;5.00;99.90;;;;;;5030814;28;20169;-80
2021/12/03 18:58:07;;;;;;;4.17;2.87;;;5.10;99.90;;;;;;5047173;28;20176;-85
2021/12/03 19:00:37;;;;;;;3.33;2.63;;;5.10;99.90;;;;;;5039138;28;20227;-84
2021/12/03 19:03:18;;;;;;;3.23;2.90;;;5.10;99.90;;;;;;5040685;28;20197;-85
2021/12/03 19:08:51;;;;;;;3.97;2.87;;;5.20;99.90;;;;;;5059941;28;20694;-81
2021/12/03 19:11:25;;;;;;;4.67;2.63;;;5.10;99.90;;;;;;5042322;28;20249;-82
2021/12/03 19:13:52;;;;;;;3.93;3.03;;;5.10;99.90;;;;;;5056715;28;20189;-85
2021/12/03 19:16:23;;;;;;;2.80;2.47;;;5.20;99.90;;;;;;5057233;28;20196;-85
2021/12/03 19:18:52;;;;;;;3.73;2.47;;;5.20;99.90;;;;;;5074433;28;20208;-81
2021/12/03 19:21:25;;;;;;;3.17;2.60;;;5.20;99.90;;;;;;5077568;28;20375;-83
2021/12/03 19:24:01;;;;;;;3.00;2.70;;;5.20;99.90;;;;;;5056492;28;20165;-85
2021/12/03 19:26:30;;;;;;;4.50;3.13;;;5.20;99.90;;;;;;5036781;28;20177;-86
2021/12/03 19:28:59;;;;;;;4.20;3.00;;;5.30;99.90;;;;;;5038399;28;20190;-83
2021/12/03 19:31:25;;;;;;;4.03;3.23;;;5.20;99.90;;;;;;5038994;28;20212;-84
2021/12/03 19:33:52;;;;;;;3.40;3.00;;;5.30;99.90;;;;;;5065800;28;20172;-85
2021/12/03 19:36:26;;;;;;;3.23;2.63;;;5.40;99.90;;;;;;5065835;28;20168;-80
2021/12/03 19:38:55;;;;;;;4.87;2.90;;;5.30;99.90;;;;;;5073501;28;20229;-81
2021/12/03 19:43:58;;;;;;;3.30;2.80;;;5.30;99.90;;;;;;5068384;28;20157;-80
2021/12/03 19:46:31;;;;;;;4.17;2.87;;;5.40;99.90;;;;;;5067264;28;20570;-86
2021/12/03 19:51:26;;;;;;;3.30;2.50;;;5.40;99.90;;;;;;5062608;28;20184;-86
2021/12/03 19:53:57;;;;;;;3.07;2.77;;;5.40;99.90;;;;;;5073637;28;20629;-85
2021/12/03 19:56:25;;;;;;;3.50;3.13;;;5.40;99.90;;;;;;5040196;28;20200;-79
2021/12/03 19:58:52;;;;;;;4.00;3.07;;;5.40;99.90;;;;;;5072617;28;20617;-82
2021/12/03 20:01:18;;;;;;;3.40;2.90;;;5.30;99.90;;;;;;5060015;28;20216;-84
2021/12/03 20:03:44;;;;;;;3.40;2.73;;;5.30;99.90;;;;;;5075580;28;20188;-86
2021/12/03 20:06:13;;;;;;;3.83;3.13;;;5.40;99.90;;;;;;5056548;28;20665;-86
2021/12/03 20:08:41;;;;;;;4.50;3.03;;;5.30;99.90;;;;;;5070346;28;20177;-86
2021/12/03 20:11:09;;;;;;;4.40;2.90;;;5.40;99.90;;;;;;5066910;28;20553;-83
2021/12/03 20:13:44;;;;;;;3.67;3.27;;;5.40;99.90;;;;;;5077202;28;20166;-86
2021/12/03 20:18:51;;;;;;;3.87;3.30;;;5.50;99.90;;;;;;5056702;28;20179;-86
2021/12/03 20:21:24;;;;;;;4.60;3.07;;;5.40;99.90;;;;;;5062694;28;20212;-87
2021/12/03 20:29:01;;;;;;;5.73;3.60;;;5.40;99.90;;;;;;5080535;28;20715;-88
2021/12/03 20:31:37;;;;;;;5.40;4.20;;;5.60;99.90;;;;;;5084853;28;20239;-87
2021/12/03 20:34:10;;;;;;;4.10;3.27;;;5.40;99.90;;;;;;5080068;28;20157;-89
2021/12/03 20:36:50;;;;;;;4.37;2.80;;;5.50;99.90;;;;;;5079514;28;20225;-89
2021/12/03 20:39:23;;;;;;;4.87;3.20;;;5.40;99.90;;;;;;5068684;28;20656;-91
2021/12/03 20:41:56;;;;;;;4.43;3.03;;;5.40;99.90;;;;;;5075693;28;20265;-87
2021/12/03 20:50:21;;;;;;;3.60;2.97;;;5.50;99.90;;;;;;5075768;28;20168;-82
2021/12/03 20:53:28;;;;;;;3.93;2.80;;;5.40;99.90;;;;;;5071958;28;20165;-83
2021/12/03 21:09:21;;;;;;;5.40;2.73;;;5.50;99.90;;;;;;5050352;28;20185;-83
2021/12/03 21:12:03;;;;;;;3.57;2.50;;;5.40;99.90;;;;;;5053269;28;20344;-80
2021/12/03 21:14:32;;;;;;;3.37;2.47;;;5.50;99.90;;;;;;5051884;28;20189;-82
2021/12/03 21:25:05;;;;;;;4.00;2.60;;;5.50;99.90;;;;;;5053464;28;20201;-86
2021/12/03 21:27:35;;;;;;;3.33;2.60;;;5.50;99.90;;;;;;5068886;28;20689;-86